Time;durP1;ratioP1;P1;durP2;ratioP2;P2;SDS_P1;SDS_P2;PMS_P1;PMS_P2;Temp;Humidity;BMP_temperature;BMP_pressure;BME280_temperature;BME280_humidity;BME280_pressure;Samples;Min_cycle;Max_cycle;Signal;HPM_P1;HPM_P2
2023/05/02 00:00:52;;;;;;;14.45;13.05;;;9.00;99.90;;;;;;5042700;28;20191;-74
2023/05/02 00:03:17;;;;;;;13.60;12.38;;;9.00;99.90;;;;;;5053888;28;20258;-75
2023/05/02 00:05:43;;;;;;;13.93;12.63;;;9.00;99.90;;;;;;5051229;28;20196;-75
2023/05/02 00:08:10;;;;;;;14.13;12.70;;;9.00;99.90;;;;;;5052012;28;20247;-77
2023/05/02 00:10:35;;;;;;;14.30;12.90;;;9.00;99.90;;;;;;5046500;28;20589;-75
2023/05/02 00:13:01;;;;;;;15.90;13.82;;;8.90;99.90;;;;;;5051674;28;20241;-75
2023/05/02 00:15:26;;;;;;;15.07;13.45;;;8.80;99.90;;;;;;5048133;28;20588;-76
2023/05/02 00:17:52;;;;;;;14.68;13.23;;;8.80;99.90;;;;;;5053482;28;20290;-75
2023/05/02 00:20:17;;;;;;;14.68;13.20;;;8.80;99.90;;;;;;5049534;28;20207;-75
2023/05/02 00:22:43;;;;;;;15.48;14.02;;;8.70;99.90;;;;;;5048318;28;20624;-74
2023/05/02 00:25:09;;;;;;;14.45;13.15;;;8.70;99.90;;;;;;5048148;28;20216;-75
2023/05/02 00:27:35;;;;;;;14.32;12.35;;;8.60;99.90;;;;;;5049517;28;20205;-74
2023/05/02 00:30:00;;;;;;;15.27;13.85;;;8.60;99.90;;;;;;5044973;28;20662;-74
2023/05/02 00:32:26;;;;;;;15.20;13.70;;;8.60;99.90;;;;;;5051638;28;20175;-75
2023/05/02 00:34:53;;;;;;;15.38;13.88;;;8.50;99.90;;;;;;5050294;28;20651;-75
2023/05/02 00:37:19;;;;;;;14.85;13.38;;;8.50;99.90;;;;;;5051867;28;20211;-74
2023/05/02 00:39:44;;;;;;;14.80;13.40;;;8.50;99.90;;;;;;5049488;28;20184;-74
2023/05/02 00:42:10;;;;;;;14.55;13.15;;;8.50;99.90;;;;;;5054576;28;20171;-74
2023/05/02 00:44:36;;;;;;;14.20;12.90;;;8.50;99.90;;;;;;5049817;28;20176;-74
2023/05/02 00:47:02;;;;;;;14.38;12.98;;;8.50;99.90;;;;;;5049840;28;20282;-74
2023/05/02 00:49:29;;;;;;;15.68;13.13;;;8.40;99.90;;;;;;5055063;28;20526;-74
2023/05/02 00:51:55;;;;;;;14.90;13.40;;;8.40;99.90;;;;;;5056417;28;20175;-74
2023/05/02 00:54:21;;;;;;;15.88;14.38;;;8.30;99.90;;;;;;5052144;28;20195;-75
2023/05/02 00:56:46;;;;;;;15.52;13.65;;;8.30;99.90;;;;;;5054985;28;20287;-74
2023/05/02 00:59:13;;;;;;;14.20;12.90;;;8.30;99.90;;;;;;5056794;28;20184;-74
2023/05/02 01:02:09;;;;;;;14.77;13.25;;;8.40;99.90;;;;;;5050329;28;20195;-74
2023/05/02 01:04:40;;;;;;;16.35;13.98;;;8.40;99.90;;;;;;5063386;28;20172;-74
2023/05/02 01:07:26;;;;;;;14.50;13.20;;;8.40;99.90;;;;;;5058045;28;20596;-75
2023/05/02 01:10:16;;;;;;;15.68;14.07;;;8.40;99.90;;;;;;5051003;28;20561;-75
2023/05/02 01:12:47;;;;;;;15.85;14.35;;;8.40;99.90;;;;;;5070097;28;20249;-74
2023/05/02 01:15:19;;;;;;;16.17;14.10;;;8.30;99.90;;;;;;5056295;28;20188;-75
2023/05/02 01:17:46;;;;;;;15.00;13.60;;;8.30;99.90;;;;;;5054248;28;20210;-75
2023/05/02 01:20:16;;;;;;;15.75;13.25;;;8.30;99.90;;;;;;5053577;28;20187;-75
2023/05/02 01:22:43;;;;;;;14.70;13.20;;;8.30;99.90;;;;;;5056153;28;20253;-75
2023/05/02 01:25:35;;;;;;;13.40;12.05;;;8.30;99.90;;;;;;5057370;28;20176;-77
2023/05/02 01:28:28;;;;;;;14.30;12.80;;;8.20;99.90;;;;;;5050956;28;20257;-75
2023/05/02 01:30:55;;;;;;;14.50;13.00;;;8.20;99.90;;;;;;5048839;28;20579;-75
2023/05/02 01:33:23;;;;;;;16.38;13.90;;;8.20;99.90;;;;;;5051905;28;20279;-75
2023/05/02 01:35:51;;;;;;;14.90;12.43;;;8.20;99.90;;;;;;5053962;28;20182;-75
2023/05/02 01:38:18;;;;;;;15.48;13.88;;;8.20;99.90;;;;;;5056242;28;20557;-76
2023/05/02 01:40:45;;;;;;;15.32;13.85;;;8.30;99.90;;;;;;5066780;28;20697;-75
2023/05/02 01:43:13;;;;;;;13.18;11.88;;;8.30;99.90;;;;;;5057858;28;20270;-75
2023/05/02 01:45:41;;;;;;;15.93;14.32;;;8.30;99.90;;;;;;5055819;28;20195;-75
2023/05/02 01:48:09;;;;;;;14.82;13.40;;;8.30;99.90;;;;;;5049804;28;20196;-75
2023/05/02 01:50:36;;;;;;;14.52;13.13;;;8.30;99.90;;;;;;5047282;28;20496;-75
2023/05/02 01:53:03;;;;;;;15.40;13.88;;;8.30;99.90;;;;;;5070433;28;20200;-75
2023/05/02 01:55:30;;;;;;;15.40;13.93;;;8.20;99.90;;;;;;5052374;28;20531;-75
2023/05/02 01:57:56;;;;;;;15.20;13.70;;;8.20;99.90;;;;;;5051872;28;20207;-75
2023/05/02 02:00:24;;;;;;;15.23;13.73;;;8.10;99.90;;;;;;5051843;28;20171;-74
2023/05/02 02:02:52;;;;;;;15.02;13.50;;;8.00;99.90;;;;;;5053425;28;20262;-74
2023/05/02 02:05:19;;;;;;;17.58;13.50;;;8.00;99.90;;;;;;5054032;28;20204;-74
2023/05/02 02:07:45;;;;;;;14.77;13.25;;;8.00;99.90;;;;;;5057814;28;20639;-74
2023/05/02 02:10:11;;;;;;;13.80;12.50;;;8.00;99.90;;;;;;5050908;28;20187;-74
2023/05/02 02:12:51;;;;;;;14.50;13.10;;;7.90;99.90;;;;;;5054293;28;20194;-74
2023/05/02 02:15:32;;;;;;;14.40;13.07;;;7.90;99.90;;;;;;5051750;28;20708;-74
2023/05/02 02:18:10;;;;;;;14.68;13.27;;;7.80;99.90;;;;;;5053636;28;20215;-74
2023/05/02 02:20:36;;;;;;;15.45;13.95;;;7.80;99.90;;;;;;5052072;28;20240;-74
2023/05/02 02:23:06;;;;;;;14.70;13.30;;;7.80;99.90;;;;;;5052383;28;20599;-75
2023/05/02 02:25:33;;;;;;;14.25;12.75;;;7.70;99.90;;;;;;5051969;28;20295;-75
2023/05/02 02:28:00;;;;;;;15.15;13.57;;;7.60;99.90;;;;;;5049597;28;20253;-75
2023/05/02 02:30:26;;;;;;;13.68;12.38;;;7.60;99.90;;;;;;5055215;28;20186;-75
2023/05/02 02:32:52;;;;;;;14.27;12.88;;;7.60;99.90;;;;;;5051499;28;20259;-74
2023/05/02 02:35:17;;;;;;;15.50;14.00;;;7.50;99.90;;;;;;5051128;28;20635;-75
2023/05/02 02:37:53;;;;;;;14.30;12.98;;;7.40;99.90;;;;;;5049375;28;20208;-75
2023/05/02 02:40:43;;;;;;;13.68;12.38;;;7.50;99.90;;;;;;5042370;28;20271;-75
2023/05/02 02:43:21;;;;;;;13.77;12.55;;;7.50;99.90;;;;;;5048064;28;20592;-75
2023/05/02 02:46:10;;;;;;;15.07;13.55;;;7.60;99.90;;;;;;5053247;28;20221;-75
2023/05/02 02:48:45;;;;;;;14.88;13.48;;;7.50;99.90;;;;;;5064358;28;20179;-75
2023/05/02 02:51:27;;;;;;;15.43;13.82;;;7.50;99.90;;;;;;5054602;28;20332;-75
2023/05/02 02:54:19;;;;;;;14.77;13.30;;;7.40;99.90;;;;;;5050518;28;20171;-75
2023/05/02 02:56:47;;;;;;;13.85;12.45;;;7.40;99.90;;;;;;5048517;28;20234;-75
2023/05/02 02:59:31;;;;;;;14.50;13.15;;;7.30;99.90;;;;;;5049713;28;20184;-75
2023/05/02 03:02:18;;;;;;;15.05;13.35;;;7.30;99.90;;;;;;5052215;28;20208;-75
2023/05/02 03:04:45;;;;;;;14.98;13.38;;;7.30;99.90;;;;;;5045511;28;20197;-74
2023/05/02 03:07:11;;;;;;;15.23;13.63;;;7.40;99.90;;;;;;5051865;28;20240;-74
2023/05/02 03:09:40;;;;;;;16.08;14.57;;;7.40;99.90;;;;;;5048003;28;20631;-74
2023/05/02 03:12:06;;;;;;;14.95;13.65;;;7.40;99.90;;;;;;5048687;28;20205;-75
2023/05/02 03:14:31;;;;;;;16.33;14.32;;;7.40;99.90;;;;;;5051776;28;20223;-76
2023/05/02 03:16:57;;;;;;;15.50;13.93;;;7.50;99.90;;;;;;5051846;28;20216;-75
2023/05/02 03:19:23;;;;;;;15.15;13.60;;;7.50;99.90;;;;;;5051944;28;20180;-75
2023/05/02 03:21:48;;;;;;;14.93;13.52;;;7.50;99.90;;;;;;5045561;28;20201;-75
2023/05/02 03:24:14;;;;;;;16.15;14.48;;;7.50;99.90;;;;;;5045871;28;20191;-75
2023/05/02 03:26:40;;;;;;;15.50;13.90;;;7.60;99.90;;;;;;5049773;28;20201;-75
2023/05/02 03:29:05;;;;;;;16.15;14.18;;;7.60;99.90;;;;;;5053014;28;20664;-75
2023/05/02 03:31:31;;;;;;;15.13;13.60;;;7.60;99.90;;;;;;5050911;28;20213;-75
2023/05/02 03:33:56;;;;;;;15.20;13.68;;;7.50;99.90;;;;;;5053089;28;20233;-75
2023/05/02 03:36:22;;;;;;;16.92;15.15;;;7.60;99.90;;;;;;5047888;28;20195;-75
2023/05/02 03:38:47;;;;;;;15.98;14.38;;;7.50;99.90;;;;;;5048788;28;20611;-75
2023/05/02 03:41:13;;;;;;;15.75;14.23;;;7.50;99.90;;;;;;5045908;28;20650;-75
2023/05/02 03:43:39;;;;;;;15.30;13.80;;;7.50;99.90;;;;;;5047919;28;20609;-75
2023/05/02 03:46:06;;;;;;;15.07;13.57;;;7.50;99.90;;;;;;5044915;28;20226;-75
2023/05/02 03:48:33;;;;;;;15.75;13.65;;;7.50;99.90;;;;;;5042129;28;20191;-75
2023/05/02 03:50:59;;;;;;;16.15;14.45;;;7.50;99.90;;;;;;5045030;28;20180;-74
2023/05/02 03:53:25;;;;;;;15.45;13.30;;;7.50;99.90;;;;;;5047963;28;20183;-75
2023/05/02 03:55:50;;;;;;;17.40;13.40;;;7.50;99.90;;;;;;5048047;28;20667;-74
2023/05/02 03:58:16;;;;;;;16.23;14.55;;;7.60;99.90;;;;;;5050179;28;20191;-75
2023/05/02 04:00:42;;;;;;;15.80;14.30;;;7.60;99.90;;;;;;5047544;28;20184;-75
2023/05/02 04:03:07;;;;;;;17.52;14.40;;;7.60;99.90;;;;;;5049176;28;20183;-75
2023/05/02 04:05:33;;;;;;;16.20;14.43;;;7.50;99.90;;;;;;5048834;28;20643;-75
2023/05/02 04:07:58;;;;;;;16.83;15.13;;;7.50;99.90;;;;;;5047387;28;20238;-74
2023/05/02 04:10:24;;;;;;;15.85;14.32;;;7.50;99.90;;;;;;5046684;28;20557;-74
2023/05/02 04:12:49;;;;;;;15.88;14.38;;;7.60;99.90;;;;;;5046652;28;20191;-74
2023/05/02 04:15:15;;;;;;;20.15;15.55;;;7.60;99.90;;;;;;5052369;28;20553;-74
2023/05/02 04:17:41;;;;;;;15.75;14.25;;;7.70;99.90;;;;;;5053087;28;20626;-75
2023/05/02 04:20:07;;;;;;;16.40;14.77;;;7.80;99.90;;;;;;5056063;28;20184;-76
2023/05/02 04:22:33;;;;;;;16.50;14.90;;;7.80;99.90;;;;;;5048423;28;20200;-76
2023/05/02 04:24:59;;;;;;;16.73;14.43;;;7.80;99.90;;;;;;5055266;28;20183;-76
2023/05/02 04:27:25;;;;;;;18.08;14.43;;;7.90;99.90;;;;;;5056610;28;20210;-76
2023/05/02 04:29:52;;;;;;;15.45;13.88;;;8.00;99.90;;;;;;5049838;28;20732;-77
2023/05/02 04:32:18;;;;;;;16.23;14.55;;;8.00;99.90;;;;;;5052696;28;20242;-77
2023/05/02 04:34:44;;;;;;;15.18;13.70;;;8.10;99.90;;;;;;5051424;28;20275;-77
2023/05/02 04:37:09;;;;;;;17.25;14.27;;;8.20;99.90;;;;;;5050985;28;20192;-76
2023/05/02 04:39:35;;;;;;;15.15;13.65;;;8.30;99.90;;;;;;5054542;28;20522;-77
2023/05/02 04:42:00;;;;;;;15.82;14.23;;;8.50;99.90;;;;;;5053475;28;20179;-77
2023/05/02 04:44:26;;;;;;;15.70;14.02;;;8.60;99.90;;;;;;5054231;28;20246;-77
2023/05/02 04:46:52;;;;;;;15.50;14.10;;;8.80;99.90;;;;;;5053339;28;20207;-77
2023/05/02 04:49:18;;;;;;;16.00;14.45;;;8.80;99.90;;;;;;5069283;28;20659;-77
2023/05/02 04:51:44;;;;;;;15.27;13.82;;;8.90;99.90;;;;;;5051541;28;20183;-79
2023/05/02 04:54:10;;;;;;;16.02;13.95;;;9.00;99.90;;;;;;5056365;28;20183;-77
2023/05/02 04:56:35;;;;;;;14.65;13.20;;;9.20;99.90;;;;;;5054513;28;20283;-78
2023/05/02 04:59:01;;;;;;;15.70;13.77;;;9.30;99.90;;;;;;5049089;28;20726;-77
2023/05/02 05:01:27;;;;;;;15.07;13.48;;;9.40;99.90;;;;;;5051550;28;20184;-77
2023/05/02 05:03:53;;;;;;;14.75;12.85;;;9.50;99.90;;;;;;5047788;28;20328;-77
2023/05/02 05:06:19;;;;;;;14.57;12.98;;;9.60;99.90;;;;;;5049667;28;20208;-77
2023/05/02 05:08:45;;;;;;;13.43;12.13;;;9.70;99.90;;;;;;5052408;28;20187;-77
2023/05/02 05:11:11;;;;;;;13.68;12.38;;;9.80;99.90;;;;;;5051313;28;20241;-78
2023/05/02 05:13:37;;;;;;;13.80;12.35;;;9.90;99.90;;;;;;5057103;28;20179;-77
2023/05/02 05:16:03;;;;;;;16.95;12.63;;;10.10;99.90;;;;;;5053289;28;20256;-77
2023/05/02 05:18:29;;;;;;;14.27;12.88;;;10.20;99.90;;;;;;5052160;28;20201;-77
2023/05/02 05:20:55;;;;;;;13.77;12.43;;;10.30;99.90;;;;;;5053003;28;20195;-78
2023/05/02 05:23:20;;;;;;;14.07;12.65;;;10.40;99.90;;;;;;5054237;28;20184;-79
2023/05/02 05:25:46;;;;;;;14.52;13.13;;;10.50;99.90;;;;;;5073009;28;20196;-79
2023/05/02 05:28:11;;;;;;;15.50;13.98;;;10.60;99.90;;;;;;5060443;28;20210;-78
2023/05/02 05:30:37;;;;;;;14.43;13.00;;;10.70;99.90;;;;;;5056335;28;20176;-79
2023/05/02 05:33:03;;;;;;;13.68;12.15;;;10.80;99.90;;;;;;5061384;28;20267;-79
2023/05/02 05:35:30;;;;;;;15.45;13.85;;;10.90;99.90;;;;;;5061545;28;20188;-78
2023/05/02 05:37:56;;;;;;;27.58;13.60;;;10.90;99.90;;;;;;5048427;28;20212;-75
2023/05/02 05:40:22;;;;;;;15.98;14.35;;;10.80;99.90;;;;;;5051614;28;20212;-76
2023/05/02 05:42:48;;;;;;;17.00;15.25;;;10.90;99.90;;;;;;5053299;28;20180;-75
2023/05/02 05:45:15;;;;;;;16.38;14.70;;;11.10;99.90;;;;;;5055268;28;20202;-76
2023/05/02 05:47:41;;;;;;;16.52;14.77;;;11.20;99.90;;;;;;5055379;28;20219;-73
2023/05/02 05:50:07;;;;;;;16.02;14.40;;;11.20;99.90;;;;;;5050744;28;20176;-75
2023/05/02 05:52:33;;;;;;;16.00;14.32;;;11.30;99.90;;;;;;5051330;28;20184;-75
2023/05/02 05:54:59;;;;;;;14.55;13.05;;;11.50;99.90;;;;;;5051076;28;20178;-75
2023/05/02 05:57:24;;;;;;;14.43;13.02;;;11.70;99.90;;;;;;5051485;28;20342;-75
2023/05/02 05:59:51;;;;;;;13.43;12.13;;;11.90;99.90;;;;;;5049330;28;20177;-76
2023/05/02 06:02:18;;;;;;;12.82;11.63;;;12.00;99.90;;;;;;5055299;28;20218;-74
2023/05/02 06:04:44;;;;;;;13.90;12.50;;;12.20;99.90;;;;;;5050847;28;20184;-75
2023/05/02 06:07:10;;;;;;;12.93;11.68;;;12.20;99.90;;;;;;5052908;28;20228;-75
2023/05/02 06:09:36;;;;;;;12.95;11.68;;;12.20;99.90;;;;;;5051561;28;20243;-75
2023/05/02 06:12:01;;;;;;;13.23;12.00;;;12.30;99.90;;;;;;5055881;28;20201;-74
2023/05/02 06:14:27;;;;;;;12.55;11.35;;;12.60;99.90;;;;;;5050430;28;20183;-74
2023/05/02 06:16:53;;;;;;;12.48;11.25;;;12.90;99.90;;;;;;5068424;28;20200;-74
2023/05/02 06:19:18;;;;;;;11.88;10.77;;;13.00;99.90;;;;;;5053213;28;20559;-75
2023/05/02 06:21:44;;;;;;;11.77;10.57;;;13.00;99.90;;;;;;5048395;28;20204;-75
2023/05/02 06:24:09;;;;;;;11.40;10.40;;;13.10;99.90;;;;;;5052369;28;20761;-76
2023/05/02 06:26:35;;;;;;;11.30;10.30;;;13.20;99.90;;;;;;5051223;28;20204;-75
2023/05/02 06:29:01;;;;;;;10.93;9.93;;;13.30;99.90;;;;;;5052281;28;20183;-75
2023/05/02 06:31:29;;;;;;;10.90;9.90;;;13.30;99.90;;;;;;5051836;28;20176;-76
2023/05/02 06:33:55;;;;;;;10.68;9.70;;;13.50;99.90;;;;;;5051321;28;20186;-76
2023/05/02 06:36:21;;;;;;;10.95;9.80;;;13.60;99.90;;;;;;5049773;28;20682;-77
2023/05/02 06:38:47;;;;;;;11.48;10.45;;;13.80;99.90;;;;;;5051419;28;20686;-76
2023/05/02 06:41:16;;;;;;;10.25;9.40;;;13.70;99.90;;;;;;5050957;28;20263;-75
2023/05/02 06:43:42;;;;;;;10.85;9.90;;;13.70;99.90;;;;;;5048749;28;20946;-75
2023/05/02 06:46:07;;;;;;;10.98;9.82;;;13.80;99.90;;;;;;5058241;28;20219;-75
2023/05/02 06:48:36;;;;;;;10.27;9.38;;;13.80;99.90;;;;;;5056101;28;20282;-75
2023/05/02 06:51:03;;;;;;;9.13;8.32;;;13.90;99.90;;;;;;5051639;28;20188;-76
2023/05/02 06:53:29;;;;;;;9.98;8.93;;;14.00;99.90;;;;;;5050447;28;20270;-75
2023/05/02 06:55:55;;;;;;;8.98;8.23;;;14.20;99.90;;;;;;5066357;28;20223;-76
2023/05/02 06:58:21;;;;;;;9.68;8.88;;;14.20;99.90;;;;;;5054309;28;20300;-75
2023/05/02 07:00:47;;;;;;;8.85;8.07;;;14.20;99.90;;;;;;5046508;28;20291;-75
2023/05/02 07:03:13;;;;;;;9.02;8.25;;;14.30;99.90;;;;;;5049495;28;20496;-75
2023/05/02 07:05:39;;;;;;;9.73;8.95;;;14.40;99.90;;;;;;5052262;28;20234;-75
2023/05/02 07:08:05;;;;;;;9.50;8.60;;;14.50;99.90;;;;;;5062108;28;20207;-75
2023/05/02 07:10:30;;;;;;;8.50;7.75;;;14.60;99.90;;;;;;5046003;28;20695;-75
2023/05/02 07:12:56;;;;;;;8.57;7.78;;;14.60;99.90;;;;;;5053064;28;20263;-75
2023/05/02 07:15:22;;;;;;;8.50;7.80;;;14.80;99.90;;;;;;5051104;28;20634;-75
2023/05/02 07:17:48;;;;;;;8.48;7.78;;;14.90;99.90;;;;;;5051115;28;20211;-76
2023/05/02 07:20:15;;;;;;;8.35;7.65;;;14.60;99.90;;;;;;5051338;28;20222;-75
2023/05/02 07:22:41;;;;;;;8.35;7.55;;;14.60;99.90;;;;;;5052496;28;20710;-75
2023/05/02 07:25:07;;;;;;;7.95;7.25;;;14.70;99.90;;;;;;5051978;28;20184;-75
2023/05/02 07:27:32;;;;;;;8.10;7.35;;;14.90;99.90;;;;;;5057827;28;20207;-75
2023/05/02 07:30:00;;;;;;;7.97;7.38;;;15.00;99.90;;;;;;5047227;28;20227;-75
2023/05/02 07:32:26;;;;;;;7.35;6.65;;;15.10;99.90;;;;;;5049442;28;20175;-75
2023/05/02 07:34:55;;;;;;;7.45;6.85;;;15.30;99.90;;;;;;5052597;28;20183;-75
2023/05/02 07:37:21;;;;;;;7.28;6.68;;;15.40;99.90;;;;;;5049511;28;20218;-75
2023/05/02 07:39:47;;;;;;;7.35;6.65;;;15.60;99.90;;;;;;5056485;28;20259;-75
2023/05/02 07:42:12;;;;;;;7.47;6.85;;;15.90;99.90;;;;;;5051905;28;20183;-75
2023/05/02 07:44:38;;;;;;;7.45;6.85;;;16.10;99.90;;;;;;5050628;28;20188;-75
2023/05/02 07:47:04;;;;;;;7.10;6.50;;;16.20;99.90;;;;;;5049603;28;20242;-76
2023/05/02 07:49:30;;;;;;;6.53;6.05;;;16.40;99.90;;;;;;5050510;28;20234;-76
2023/05/02 07:51:56;;;;;;;6.65;6.07;;;16.60;99.90;;;;;;5057828;28;20179;-76
2023/05/02 07:54:23;;;;;;;7.13;6.53;;;16.70;99.90;;;;;;5053024;28;20194;-75
2023/05/02 07:56:49;;;;;;;6.50;5.82;;;16.90;99.90;;;;;;5053582;28;20251;-76
2023/05/02 07:59:15;;;;;;;7.20;6.60;;;17.00;99.90;;;;;;5050156;28;20233;-75
2023/05/02 08:01:40;;;;;;;7.80;7.10;;;17.30;99.90;;;;;;5063815;28;20188;-75
2023/05/02 08:04:08;;;;;;;6.95;6.20;;;17.40;99.90;;;;;;5053407;28;20275;-75
2023/05/02 08:06:33;;;;;;;7.28;6.57;;;17.50;99.90;;;;;;5052917;28;20675;-76
2023/05/02 08:08:59;;;;;;;6.85;6.35;;;17.80;99.90;;;;;;5049998;28;20203;-76
2023/05/02 08:11:25;;;;;;;6.60;6.10;;;17.90;99.90;;;;;;5054021;28;20221;-76
2023/05/02 08:13:51;;;;;;;6.72;6.13;;;18.00;99.90;;;;;;5052380;28;20186;-75
2023/05/02 08:16:17;;;;;;;6.40;5.82;;;17.90;99.90;;;;;;5048573;28;20198;-75
2023/05/02 08:18:43;;;;;;;6.90;6.30;;;17.70;99.90;;;;;;5050585;28;20183;-75
2023/05/02 08:21:09;;;;;;;6.72;6.15;;;17.50;99.90;;;;;;5047664;28;20632;-75
2023/05/02 08:23:36;;;;;;;6.65;6.15;;;17.30;99.90;;;;;;5050667;28;20187;-75
2023/05/02 08:26:02;;;;;;;6.53;6.03;;;17.20;99.90;;;;;;5048234;28;20299;-75
2023/05/02 08:28:28;;;;;;;6.40;5.88;;;17.20;99.90;;;;;;5049288;28;20252;-75
2023/05/02 08:30:53;;;;;;;6.25;5.78;;;17.20;99.90;;;;;;5068465;28;20225;-76
2023/05/02 08:33:19;;;;;;;7.05;6.38;;;17.30;99.90;;;;;;5051140;28;20180;-76
2023/05/02 08:35:44;;;;;;;6.57;6.03;;;17.20;99.90;;;;;;5066020;28;20182;-75
2023/05/02 08:38:10;;;;;;;6.82;6.32;;;17.20;99.90;;;;;;5049334;28;20253;-75
2023/05/02 08:40:37;;;;;;;6.15;5.70;;;17.40;99.90;;;;;;5047598;28;20241;-76
2023/05/02 08:43:06;;;;;;;5.80;5.30;;;17.80;99.90;;;;;;5052642;28;20539;-75
2023/05/02 08:45:37;;;;;;;6.43;5.93;;;17.80;99.90;;;;;;5062114;28;20234;-76
2023/05/02 08:48:09;;;;;;;5.95;5.45;;;17.80;99.90;;;;;;5048568;28;20204;-76
2023/05/02 08:50:37;;;;;;;5.93;5.32;;;17.70;99.90;;;;;;5049235;28;20168;-76
2023/05/02 08:53:05;;;;;;;5.95;5.38;;;17.80;99.90;;;;;;5051204;28;20183;-77
2023/05/02 08:55:32;;;;;;;6.63;6.13;;;18.00;99.90;;;;;;5047529;28;20192;-76
2023/05/02 08:57:59;;;;;;;6.43;5.82;;;18.00;99.90;;;;;;5059115;28;20610;-76
2023/05/02 09:00:25;;;;;;;6.28;5.68;;;18.10;99.90;;;;;;5053975;28;20172;-75
2023/05/02 09:03:29;;;;;;;6.07;5.50;;;18.10;99.90;;;;;;5054916;28;20176;-76
2023/05/02 09:06:11;;;;;;;6.50;5.90;;;18.40;99.90;;;;;;5053626;28;20213;-76
2023/05/02 09:08:38;;;;;;;5.93;5.40;;;18.60;99.90;;;;;;5076447;28;20416;-76
2023/05/02 09:11:04;;;;;;;6.22;5.72;;;18.80;99.90;;;;;;5058089;28;20610;-76
2023/05/02 09:13:35;;;;;;;7.03;6.35;;;18.70;99.90;;;;;;5070713;28;20179;-75
2023/05/02 09:16:24;;;;;;;6.30;5.78;;;18.60;99.90;;;;;;5055969;28;20183;-78
2023/05/02 09:18:57;;;;;;;5.97;5.47;;;18.70;99.90;;;;;;5049111;28;20228;-78
2023/05/02 09:21:25;;;;;;;5.72;5.22;;;18.70;99.90;;;;;;5070950;28;20246;-78
2023/05/02 09:23:53;;;;;;;5.95;5.43;;;18.70;99.90;;;;;;5056833;28;20274;-78
2023/05/02 09:26:25;;;;;;;6.47;5.80;;;18.80;99.90;;;;;;5051290;28;21004;-76
2023/05/02 09:28:52;;;;;;;5.38;4.97;;;18.90;99.90;;;;;;5050691;28;20655;-76
2023/05/02 09:31:24;;;;;;;6.15;5.38;;;19.00;99.90;;;;;;5053492;28;20549;-76
2023/05/02 09:33:51;;;;;;;6.18;5.60;;;19.00;99.90;;;;;;5054583;28;20180;-76
2023/05/02 09:36:19;;;;;;;5.50;5.15;;;19.20;99.60;;;;;;5069850;28;20714;-75
2023/05/02 09:38:46;;;;;;;6.22;5.72;;;19.40;99.90;;;;;;5052764;28;20602;-76
2023/05/02 09:41:13;;;;;;;5.72;5.30;;;19.70;99.90;;;;;;5052537;28;20183;-77
2023/05/02 09:43:39;;;;;;;6.53;6.03;;;20.00;98.10;;;;;;5054724;28;20191;-76
2023/05/02 09:46:07;;;;;;;6.68;6.15;;;20.10;98.30;;;;;;5051743;28;20602;-77
2023/05/02 09:48:52;;;;;;;6.63;6.05;;;20.30;97.30;;;;;;5054172;28;20191;-76
2023/05/02 09:51:18;;;;;;;6.55;6.05;;;20.50;96.50;;;;;;5054296;28;20176;-76
2023/05/02 09:53:45;;;;;;;6.32;5.82;;;20.40;96.90;;;;;;5068023;28;20176;-76
2023/05/02 09:56:11;;;;;;;6.60;6.10;;;20.30;96.30;;;;;;5050866;28;20194;-77
2023/05/02 09:58:36;;;;;;;6.97;6.28;;;20.50;96.50;;;;;;5051515;28;20184;-77
2023/05/02 10:01:02;;;;;;;6.22;5.72;;;20.70;96.50;;;;;;5054996;28;20214;-77
2023/05/02 10:03:30;;;;;;;6.72;6.22;;;20.80;95.40;;;;;;5054046;28;20172;-76
2023/05/02 10:05:57;;;;;;;6.00;5.60;;;21.00;95.60;;;;;;5058204;28;20208;-75
2023/05/02 10:08:27;;;;;;;6.80;6.30;;;21.00;95.00;;;;;;5054172;28;20187;-76
2023/05/02 10:10:57;;;;;;;6.55;6.05;;;20.80;95.10;;;;;;5052024;28;20187;-75
2023/05/02 10:13:26;;;;;;;6.32;5.93;;;20.50;95.20;;;;;;5053385;28;20179;-75
2023/05/02 10:16:05;;;;;;;5.55;5.15;;;20.20;95.40;;;;;;5050578;28;20194;-75
2023/05/02 10:18:37;;;;;;;6.55;6.05;;;19.80;96.60;;;;;;5050152;28;20199;-75
2023/05/02 10:21:09;;;;;;;6.15;5.75;;;19.60;97.00;;;;;;5051089;28;20222;-75
2023/05/02 10:23:37;;;;;;;6.57;6.07;;;19.50;98.20;;;;;;5050728;28;20188;-75
2023/05/02 10:26:03;;;;;;;6.15;5.65;;;19.60;98.00;;;;;;5056564;28;20670;-75
2023/05/02 10:28:29;;;;;;;6.10;5.68;;;19.80;97.90;;;;;;5050226;28;20197;-75
2023/05/02 10:30:56;;;;;;;6.22;5.70;;;19.80;97.10;;;;;;5052400;28;20168;-75
2023/05/02 10:33:22;;;;;;;6.63;6.03;;;19.80;98.90;;;;;;5053820;28;20184;-76
2023/05/02 10:35:48;;;;;;;7.10;5.38;;;19.70;99.90;;;;;;5049682;28;20502;-76
2023/05/02 10:38:19;;;;;;;6.63;5.95;;;19.80;99.90;;;;;;5049207;28;20223;-75
2023/05/02 10:41:14;;;;;;;5.70;5.28;;;19.90;99.00;;;;;;5052338;28;20180;-75
2023/05/02 10:43:45;;;;;;;6.03;5.63;;;20.00;99.00;;;;;;5043528;28;20199;-76
2023/05/02 10:46:32;;;;;;;6.15;5.68;;;20.10;97.30;;;;;;5047908;28;20263;-74
2023/05/02 10:49:10;;;;;;;6.00;5.40;;;20.40;97.20;;;;;;5053542;28;20176;-75
2023/05/02 10:51:37;;;;;;;5.95;5.35;;;20.80;96.30;;;;;;5053473;28;20190;-76
2023/05/02 10:54:22;;;;;;;6.03;5.63;;;21.30;94.70;;;;;;5055782;28;20285;-75
2023/05/02 10:57:03;;;;;;;5.35;4.95;;;21.50;93.40;;;;;;5051869;28;20233;-75
2023/05/02 10:59:41;;;;;;;6.18;5.78;;;21.80;92.90;;;;;;5046998;28;20177;-76
2023/05/02 11:02:22;;;;;;;5.95;5.45;;;22.60;91.50;;;;;;5047248;28;20184;-76
2023/05/02 11:05:04;;;;;;;5.32;4.93;;;23.20;88.80;;;;;;5051453;28;20194;-76
2023/05/02 11:07:34;;;;;;;5.97;5.57;;;24.20;87.60;;;;;;5049803;28;20231;-76
2023/05/02 11:10:15;;;;;;;5.15;4.85;;;25.20;84.00;;;;;;5061734;28;20235;-73
2023/05/02 11:12:52;;;;;;;6.25;5.85;;;26.20;79.00;;;;;;5048097;28;20212;-73
2023/05/02 11:15:31;;;;;;;4.55;4.25;;;26.70;74.10;;;;;;5046517;28;20176;-74
2023/05/02 11:18:07;;;;;;;4.88;4.50;;;27.10;72.40;;;;;;5051587;28;20196;-74
2023/05/02 11:20:34;;;;;;;5.13;4.72;;;27.40;71.80;;;;;;5049848;28;20167;-73
2023/05/02 11:23:15;;;;;;;5.53;5.13;;;27.50;68.00;;;;;;5050793;28;20195;-73
2023/05/02 11:25:46;;;;;;;5.72;5.22;;;27.20;66.60;;;;;;5048725;28;20256;-73
2023/05/02 11:28:47;;;;;;;5.75;5.35;;;27.00;66.40;;;;;;5048510;28;20299;-73
2023/05/02 11:31:28;;;;;;;5.88;5.38;;;27.00;67.00;;;;;;5045250;28;20218;-74
2023/05/02 11:34:01;;;;;;;8.75;8.05;;;27.60;66.90;;;;;;5052550;28;20179;-73
2023/05/02 11:36:32;;;;;;;5.13;4.72;;;28.00;65.20;;;;;;5067716;28;20200;-73
2023/05/02 11:39:02;;;;;;;4.30;4.00;;;27.80;62.80;;;;;;5050640;28;20258;-73
2023/05/02 11:41:45;;;;;;;4.68;4.38;;;27.90;61.70;;;;;;5069834;28;20681;-73
2023/05/02 11:44:11;;;;;;;4.43;4.13;;;27.80;59.50;;;;;;5066096;28;20395;-73
2023/05/02 11:46:40;;;;;;;4.78;4.40;;;28.00;58.80;;;;;;5049993;28;20210;-73
2023/05/02 11:49:07;;;;;;;4.10;3.75;;;27.90;58.10;;;;;;5056349;28;20183;-74
2023/05/02 11:51:33;;;;;;;5.18;4.78;;;27.90;58.10;;;;;;5053238;28;20194;-73
2023/05/02 11:53:58;;;;;;;4.20;4.00;;;27.50;57.80;;;;;;5054788;28;20226;-73
2023/05/02 11:56:27;;;;;;;4.35;4.05;;;26.70;60.70;;;;;;5050223;28;20199;-73
2023/05/02 11:59:03;;;;;;;4.60;4.20;;;26.50;62.10;;;;;;5045430;28;20727;-73
2023/05/02 12:01:29;;;;;;;4.75;4.40;;;26.50;60.50;;;;;;5047697;28;20224;-73
2023/05/02 12:04:05;;;;;;;5.68;4.15;;;25.90;62.10;;;;;;5049995;28;20499;-73
2023/05/02 12:06:31;;;;;;;4.47;4.18;;;25.80;62.20;;;;;;5053294;28;20634;-73
2023/05/02 12:09:15;;;;;;;4.82;4.50;;;26.10;61.60;;;;;;5047250;28;20195;-73
2023/05/02 12:11:42;;;;;;;4.75;4.43;;;26.80;63.60;;;;;;5049397;28;20678;-74
2023/05/02 12:14:08;;;;;;;4.70;4.30;;;27.70;61.00;;;;;;5057026;28;20250;-73
2023/05/02 12:16:34;;;;;;;4.78;4.38;;;28.50;59.40;;;;;;5050794;28;20286;-73
2023/05/02 12:19:00;;;;;;;4.75;4.45;;;29.10;57.50;;;;;;5046872;28;20651;-73
2023/05/02 12:21:29;;;;;;;3.95;3.75;;;29.80;55.50;;;;;;5047795;28;20196;-74
2023/05/02 12:23:55;;;;;;;4.47;4.13;;;30.40;54.10;;;;;;5059678;28;20271;-73
2023/05/02 12:26:24;;;;;;;3.72;3.45;;;30.60;52.80;;;;;;5048597;28;20210;-73
2023/05/02 12:28:53;;;;;;;4.25;3.92;;;30.70;52.40;;;;;;5048807;28;20175;-73
2023/05/02 12:31:19;;;;;;;3.92;3.50;;;30.80;52.60;;;;;;5046520;28;20175;-74
2023/05/02 12:33:47;;;;;;;3.42;3.22;;;31.20;52.30;;;;;;5046594;28;20174;-73
2023/05/02 12:36:13;;;;;;;3.53;3.33;;;31.80;51.20;;;;;;5051559;28;20274;-74
2023/05/02 12:38:38;;;;;;;3.33;3.03;;;32.10;50.50;;;;;;5052374;28;20274;-71
2023/05/02 12:41:04;;;;;;;3.17;2.97;;;31.90;50.80;;;;;;5055216;28;20584;-72
2023/05/02 12:43:51;;;;;;;3.60;3.30;;;31.60;49.80;;;;;;5069318;28;20259;-72
2023/05/02 12:46:16;;;;;;;3.40;3.17;;;31.20;49.90;;;;;;5053772;28;20206;-72
2023/05/02 12:48:42;;;;;;;3.47;3.28;;;31.20;50.10;;;;;;5069085;28;20183;-71